Nearby METAR (Airport) Reports

 

KPRN - Greenville, Alabama, USA
Distance from station: WNW 17mi, 28km
Updated: Mon, 06-Apr-2020 6:56pm CDT
Clear
Clear
 Wind from calm
Wind: Calm
Temperature: 77°F , 25°C
Dew Point: 55°F , 13°C
Humidity: 47%
Barometer: 30.04 inHg , 1017.3 hPa
Clouds: Clear
Visibility: 10 miles , 16 km
2020/04/06 23:56 KPRN 062356Z AUTO 00000KT 10SM CLR 25/13 A3004 RMK AO2 SLP170 T02500133 10294 20250 53002
KTOI - Troy, Alabama, USA
Distance from station: ENE 21mi, 34km
Updated: Mon, 06-Apr-2020 6:53pm CDT
Clear
Clear
 Wind from calm
Wind: Calm
Temperature: 75°F , 24°C
Dew Point: 61°F , 16°C
Humidity: 61%
Barometer: 30.06 inHg , 1017.9 hPa
Clouds: Clear
Visibility: 10 miles , 16 km
2020/04/06 23:53 KTOI 062353Z AUTO 00000KT 10SM CLR 24/16 A3006 RMK AO2 SLP175 T02440156 10294 20244 53004
K79J - Andalusia/Opp Ar, Alabama, USA
Distance from station: S 29mi, 47km
Updated: Mon, 06-Apr-2020 6:56pm CDT
Clear
Clear
 Wind from SSW
Wind: SSW 3 mph , 6 km/h
Temperature: 81°F , 27°C
Heat Index: 82°F , 28°C
Dew Point: 61°F , 16°C
Humidity: 51%
Barometer: 30.05 inHg , 1017.6 hPa
Clouds: Clear
Visibility: 10 miles , 16 km
2020/04/06 23:56 K79J 062356Z AUTO 20003KT 10SM CLR 27/16 A3005 RMK AO2 SLP171 T02670156 10311 20267 55001
 
KMGM - Montgomery, Alabama, USA
Distance from station: N 39mi, 63km
Updated: Mon, 06-Apr-2020 6:53pm CDT
Few Clouds
Few Clouds
 Wind from SW
Wind: SW 3 mph , 6 km/h
Temperature: 77°F , 25°C
Dew Point: 61°F , 16°C
Humidity: 57%
Barometer: 30.04 inHg , 1017.3 hPa
Clouds: Few Clouds
Visibility: 10 miles , 16 km
Cloud details: Few Clouds 7000 ft
2020/04/06 23:53 KMGM 062353Z 22003KT 10SM FEW070 25/16 A3004 RMK AO2 SLP171 T02500161 10300 20250 53004
KMXF - Maxwell Afb/Mgm, Alabama, USA
Distance from station: N 44mi, 70km
Updated: Mon, 06-Apr-2020 6:56pm CDT
Few Clouds
Few Clouds
 Wind from calm
Wind: Calm
Temperature: 77°F , 25°C
Dew Point: 61°F , 16°C
Humidity: 57%
Barometer: 30.04 inHg , 1017.3 hPa
Clouds: Few Clouds
Visibility: 10 miles , 16 km
Cloud details: Few Clouds 9500 ft
Few Clouds 19000 ft
2020/04/06 23:56 KMXF 062356Z AUTO 00000KT 10SM FEW095 FEW190 25/16 A3004 RMK AO2 SLP174 T02500164 10294 20250 53004
KLOR - Lowe Ahp/Ft. Ruc, Alabama, USA
Distance from station: SE 44mi, 71km
Updated: Mon, 06-Apr-2020 7:06pm CDT
Overcast
Overcast
 Wind from calm
Wind: Calm
Temperature: 73°F , 23°C
Dew Point: 61°F , 16°C
Humidity: 65%
Barometer: 30.04 inHg , 1017.3 hPa
Clouds: Overcast
Visibility: 7 miles , 11 km
Cloud details: Overcast 18000 ft
2020/04/07 00:06 KLOR 070006Z AUTO 00000KT 7SM OVC180 23/16 A3004 RMK AO2 RAE06 SLP155
 
KGZH - Evergreen, Alabama, USA
Distance from station: WSW 46mi, 75km
Updated: Mon, 06-Apr-2020 6:53pm CDT
Clear
Clear
 Wind from calm
Wind: Calm
Temperature: 75°F , 24°C
Dew Point: 61°F , 16°C
Humidity: 61%
Barometer: 30.05 inHg , 1017.6 hPa
Clouds: Clear
Visibility: 10 miles , 16 km
2020/04/06 23:53 KGZH 062353Z AUTO 00000KT 10SM CLR 24/16 A3005 RMK AO2 SLP173 T02440161 10294 20244 55002
K0J4 - Florala Muni, Alabama, USA
Distance from station: S 47mi, 76km
Updated: Mon, 06-Apr-2020 6:58pm CDT
Clear
Clear
 Wind from SSW
Wind: SSW 5 mph , 7 km/h
Temperature: 75°F , 24°C
Dew Point: 61°F , 16°C
Humidity: 61%
Barometer: 30.07 inHg , 1018.3 hPa
Clouds: Clear
Visibility: 10 miles , 16 km
2020/04/06 23:58 K0J4 062358Z AUTO 21004KT 10SM CLR 24/16 A3007 RMK AO2 SLP180 T02440156 10294 20244 53003 $
KOZR - Ozark/Cairns Aaf, Alabama, USA
Distance from station: SE 49mi, 78km
Updated: Mon, 06-Apr-2020 6:56pm CDT
Mostly cloudy
Mostly cloudy
 Wind from S
Wind: S 3 mph , 6 km/h
Temperature: 77°F , 25°C
Dew Point: 57°F , 14°C
Humidity: 51%
Barometer: 30.04 inHg , 1017.3 hPa
Clouds: Mostly cloudy
Visibility: 10 miles , 16 km
Cloud details: Mostly cloudy 17000 ft
2020/04/06 23:56 KOZR 062356Z AUTO 19003KT 10SM BKN170 25/14 A3004 RMK AO2 SLP173 T02540136 10290 20254 56002
 
KHEY - Ft Rucker/Hanche, Alabama, USA
Distance from station: ESE 49mi, 79km
Updated: Mon, 06-Apr-2020 6:58pm CDT
Mostly cloudy
Mostly cloudy
 Wind from calm
Wind: Calm
Temperature: 77°F , 25°C
Dew Point: 57°F , 14°C
Humidity: 51%
Barometer: 30.03 inHg , 1016.9 hPa
Clouds: Mostly cloudy
Visibility: 8 miles , 13 km
Cloud details: Mostly cloudy 18000 ft
2020/04/06 23:58 KHEY 062358Z AUTO 00000KT 8SM BKN180 25/14 A3003 RMK AO2 SLP170 T02520143 10286 20250 56001
KDHN - Dothan, Alabama, USA
Distance from station: ESE 61mi, 97km
Updated: Mon, 06-Apr-2020 6:53pm CDT
Clear
Clear
 Wind from SW
Wind: SW 6 mph , 9 km/h
Temperature: 79°F , 26°C
Dew Point: 55°F , 13°C
Humidity: 45%
Barometer: 30.08 inHg , 1018.6 hPa
Clouds: Clear
Visibility: 10 miles , 16 km
2020/04/06 23:53 KDHN 062353Z 22005KT 10SM CLR 26/13 A3008 RMK AO2 SLP181 T02610128 10289 20261 53001
KCEW - Crestview, Florida, USA
Distance from station: S 66mi, 107km
Updated: Mon, 06-Apr-2020 6:53pm CDT
Clear
Clear
 Wind from S
Wind: S 7 mph , 11 km/h
Temperature: 75°F , 24°C
Dew Point: 55°F , 13°C
Humidity: 50%
Barometer: 30.07 inHg , 1018.3 hPa
Clouds: Clear
Visibility: 10 miles , 16 km
2020/04/06 23:53 KCEW 062353Z AUTO 19006KT 10SM CLR 24/13 A3007 RMK AO2 SLP181 T02390133 10289 20239 53002
 
KEUF - Eufaula, Alabama, USA
Distance from station: ENE 73mi, 118km
Updated: Mon, 04-Mar-2019 12:58pm CST
NOT Current

 
Barometer: 30.10 inHg , 1019.3 hPa
2019/03/04 18:58 KEUF 041858Z AUTO A3010 RMK AO2 RAEMM TSB02B32 SLPNO PWINO FZRANO TSNO $
KJKA - Gulf Shores, Alabama, USA
Distance from station: SSW 132mi, 212km
Updated: Mon, 06-Apr-2020 7:15pm CDT
Clear
Clear
 Wind from S
Wind: S 6 mph , 9 km/h
Temperature: 68°F , 20°C
Dew Point: 64°F , 18°C
Humidity: 88%
Barometer: 30.08 inHg , 1018.6 hPa
Clouds: Clear
Visibility: 10 miles , 16 km
2020/04/07 00:15 KJKA 070015Z AUTO 17005KT 10SM CLR 20/18 A3008 RMK AO2 T02040177
KLSF - Ft Benning/Colum, Georgia, USA
Distance from station: SNE 89mi, 143km
Updated: Mon, 06-Apr-2020 6:56pm CDT
Clear
Clear
 Wind from calm
Wind: Calm
Temperature: 72°F , 22°C
Dew Point: 63°F , 17°C
Humidity: 73%
Barometer: 30.03 inHg , 1016.9 hPa
Clouds: Clear
Visibility: 10 miles , 16 km
2020/04/06 23:56 KLSF 062356Z AUTO 00000KT 10SM CLR 22/17 A3003 RMK AO2 SLP173 T02160170 10295 20216 53002 $
 
KMOB - Mobile/Bates, Alabama, USA
Distance from station: SW 125mi, 202km
Updated: Mon, 06-Apr-2020 6:56pm CDT
Partly cloudy
Partly cloudy
 Wind from S
Wind: S 9 mph , 15 km/h
Temperature: 73°F , 23°C
Dew Point: 57°F , 14°C
Humidity: 57%
Barometer: 30.08 inHg , 1018.6 hPa
Clouds: Partly cloudy
Visibility: 10 miles , 16 km
Cloud details: Few Clouds 2500 ft
Partly cloudy 8000 ft
Partly cloudy 20000 ft
2020/04/06 23:56 KMOB 062356Z 18008KT 10SM FEW025 SCT080 SCT200 23/14 A3008 RMK AO2 SLP182 T02280139 10278 20228 53003
KNMM - Meridian Nas, Mississippi, USA
Distance from station: WNW 151mi, 243km
Updated: Mon, 06-Apr-2020 6:56pm CDT
Overcast
Overcast
 Wind from SSW
Wind: SSW 3 mph , 6 km/h
Temperature: 73°F , 23°C
Dew Point: 63°F , 17°C
Humidity: 69%
Barometer: 30.05 inHg , 1017.6 hPa
Clouds: Overcast
Visibility: 10 miles , 16 km
Cloud details: Mostly cloudy 13000 ft
Overcast 25000 ft
2020/04/06 23:56 KNMM 062356Z 21003KT 10SM BKN130 OVC250 23/17 A3005 RMK AO2 SLP184 T02280167 10278 20222 58000
KQHY - Hurlbert (Ft Walton Bch), Florida, USA
Distance from station: S 94mi, 151km
Updated: Mon, 06-Apr-2020 6:56pm CDT
Clear
Clear
 Wind from calm
Wind: Calm
Temperature: 72°F , 22°C
Dew Point: 64°F , 18°C
Humidity: 78%
Barometer: 30.07 inHg , 1018.3 hPa
Clouds: Clear
Visibility: 10 miles , 16 km
2020/04/06 23:56 KQHY 062356Z AUTO 00000KT 10SM CLR 22/18 A3007 RMK AO2 SLP189 T02230181 10250 20219 55003
 
KTCL - Tuscaloosa, Alabama, USA
Distance from station: NNW 129mi, 207km
Updated: Mon, 06-Apr-2020 6:53pm CDT
Clear
Clear
 Wind from SW
Wind: SW 3 mph , 6 km/h
Temperature: 77°F , 25°C
Dew Point: 59°F , 15°C
Humidity: 54%
Barometer: 30.04 inHg , 1017.3 hPa
Clouds: Clear
Visibility: 10 miles , 16 km
2020/04/06 23:53 KTCL 062353Z 23003KT 10SM CLR 25/15 A3004 RMK AO2 SLP170 T02500150 10289 20250 53001
KECP - Panama City, Florida, USA
Distance from station: SSE 122mi, 196km
Updated: Mon, 06-Apr-2020 6:53pm CDT
Clear
Clear
 Wind from S
Wind: S 7 mph , 11 km/h
Temperature: 72°F , 22°C
Dew Point: 63°F , 17°C
Humidity: 73%
Barometer: 30.06 inHg , 1017.9 hPa
Clouds: Clear
Visibility: 10 miles , 16 km
2020/04/06 23:53 KECP 062353Z 19006KT 10SM CLR 22/17 A3006 RMK AO2 SLP190 T02170172 10278 20217 50000
KCBM - Columbus Afb, Mississippi, USA
Distance from station: NW 175mi, 282km
Updated: Mon, 06-Apr-2020 5:56pm CDT
NOT Current
Mostly cloudy
Mostly cloudy
 Wind from SW
Wind: SW 5 mph , 7 km/h
Clouds: Mostly cloudy
Visibility: 10 miles , 16 km
Cloud details: Partly cloudy 14000 ft
Mostly cloudy 19000 ft
2020/04/06 22:56 KCBM 062256Z AUTO 22004KT 10SM SCT140 BKN190 M M RMK AO2 SLPNO RVRNO CHINO RWY13C $
 
KBHM - Birmingham, Alabama, USA
Distance from station: N 132mi, 212km
Updated: Mon, 06-Apr-2020 6:53pm CDT
Overcast
Overcast
 Wind from W
Wind: W 7 mph , 11 km/h
Temperature: 77°F , 25°C
Dew Point: 54°F , 12°C
Humidity: 44%
Barometer: 30.06 inHg , 1017.9 hPa
Clouds: Overcast
Visibility: 10 miles , 16 km
Cloud details: Few Clouds 7000 ft
Overcast 25000 ft
2020/04/06 23:53 KBHM 062353Z 27006KT 10SM FEW070 OVC250 25/12 A3006 RMK AO2 SLP172 T02500122 10289 20250 51004
KAAF - Apalachicola, Florida, USA
Distance from station: SSE 156mi, 250km
Updated: Mon, 06-Apr-2020 6:53pm CDT

 
Barometer: 30.07 inHg , 1018.3 hPa
2020/04/06 23:53 KAAF 062353Z AUTO A3007 RMK AO2 SLP184 55003 PWINO $
KATL - Atlanta, Georgia, USA
Distance from station: NE 177mi, 287km
Updated: Mon, 06-Apr-2020 6:52pm CDT
Overcast
Overcast
 Wind from WSW
Wind: WSW 3 mph , 6 km/h
Temperature: 75°F , 24°C
Dew Point: 52°F , 11°C
Humidity: 44%
Barometer: 30.05 inHg , 1017.6 hPa
Clouds: Overcast
Visibility: 10 miles , 16 km
Cloud details: Few Clouds 6000 ft
Partly cloudy 11000 ft
Mostly cloudy 20000 ft
Overcast 25000 ft
2020/04/06 23:52 KATL 062352Z 25003KT 10SM FEW060 SCT110 BKN200 OVC250 24/11 A3005 RMK AO2 SLP168 TCU DSNT NW T02390106 10283 20233 50002
 
KGPT - Gulfport, Mississippi, USA
Distance from station: SW 192mi, 309km
Updated: Mon, 06-Apr-2020 6:53pm CDT
Clear
Clear
 Wind from S
Wind: S 5 mph , 7 km/h
Temperature: 73°F , 23°C
Dew Point: 63°F , 17°C
Humidity: 69%
Barometer: 30.06 inHg , 1017.9 hPa
Clouds: Clear
Visibility: 10 miles , 16 km
2020/04/06 23:53 KGPT 062353Z 18004KT 10SM CLR 23/17 A3006 RMK AO2 SLP177 T02280167 10256 20228 58002
KNEW - New Orleans/Lake, Louisiana, USA
Distance from station: SW 255mi, 410km
Updated: Mon, 06-Apr-2020 6:53pm CDT

 
2020/04/06 23:53 KNEW 062353Z RMK AO2 SLPNO $
KP92 - Salt Point, Louisiana, USA
Distance from station: SW 347mi, 559km
Updated: Mon, 06-Apr-2020 6:59pm CDT

 Wind from ESE
Wind: ESE 8 mph , 13 km/h
Temperature: 73°F , 23°C
Dew Point: 68°F , 20°C
Humidity: 83%
Barometer: 30.00 inHg , 1015.9 hPa
2020/04/06 23:59 KP92 062359Z AUTO 12007KT 23/20 A3000 RMK AO1 SLP160 T02280200 10256 20228 55005